Time;durP1;ratioP1;P1;durP2;ratioP2;P2;SDS_P1;SDS_P2;PMS_P1;PMS_P2;Temp;Humidity;BMP_temperature;BMP_pressure;BME280_temperature;BME280_humidity;BME280_pressure;Samples;Min_cycle;Max_cycle;Signal;HPM_P1;HPM_P2
2023/02/11 00:01:34;;;;;;;9.52;5.63;;;;;;;;;;5136683;27;20022;-72
2023/02/11 00:04:01;;;;;;;7.88;5.55;;;;;;;;;;5106445;27;20039;-72
2023/02/11 00:06:28;;;;;;;11.00;5.60;;;;;;;;;;5134561;27;20023;-72
2023/02/11 00:08:55;;;;;;;13.40;6.28;;;;;;;;;;5125722;27;20514;-72
2023/02/11 00:11:24;;;;;;;9.15;5.18;;;;;;;;;;5131149;27;20050;-72
2023/02/11 00:13:50;;;;;;;7.93;5.07;;;;;;;;;;5127885;27;20027;-72
2023/02/11 00:16:17;;;;;;;11.73;5.65;;;;;;;;;;5131408;27;20366;-73
2023/02/11 00:18:44;;;;;;;7.70;5.20;;;;;;;;;;5130158;27;20156;-72
2023/02/11 00:21:11;;;;;;;12.13;6.32;;;;;;;;;;5131829;27;20420;-72
2023/02/11 00:23:38;;;;;;;8.20;5.30;;;;;;;;;;5129817;27;20023;-71
2023/02/11 00:26:11;;;;;;;8.70;5.40;;;;;;;;;;5130878;27;20023;-78
2023/02/11 00:28:37;;;;;;;7.65;5.25;;;;;;;;;;5131409;27;20030;-71
2023/02/11 00:31:03;;;;;;;9.45;6.13;;;;;;;;;;5130288;27;20838;-72
2023/02/11 00:33:29;;;;;;;10.43;5.38;;;;;;;;;;5119793;27;20030;-73
2023/02/11 00:35:55;;;;;;;7.70;5.32;;;;;;;;;;5137564;27;20048;-72
2023/02/11 00:38:22;;;;;;;9.70;5.32;;;;;;;;;;5132057;27;20023;-72
2023/02/11 00:40:48;;;;;;;8.48;5.55;;;;;;;;;;5130013;27;20022;-72
2023/02/11 00:43:14;;;;;;;11.85;5.07;;;;;;;;;;5136045;27;20023;-73
2023/02/11 00:45:40;;;;;;;9.18;5.13;;;;;;;;;;5132381;27;20013;-72
2023/02/11 00:48:06;;;;;;;11.68;5.70;;;;;;;;;;5138509;27;20033;-74
2023/02/11 00:50:32;;;;;;;9.55;5.10;;;;;;;;;;5133686;27;20040;-72
2023/02/11 00:52:58;;;;;;;7.85;5.05;;;;;;;;;;5133595;27;20590;-72
2023/02/11 00:55:25;;;;;;;9.85;5.97;;;;;;;;;;5134895;27;20019;-77
2023/02/11 00:57:51;;;;;;;11.35;5.55;;;;;;;;;;5132779;27;20034;-73
2023/02/11 01:00:17;;;;;;;9.35;5.68;;;;;;;;;;5135115;27;20080;-72
2023/02/11 01:02:43;;;;;;;6.55;4.97;;;;;;;;;;5131000;27;20022;-72
2023/02/11 01:05:09;;;;;;;7.10;5.20;;;;;;;;;;5134241;27;20025;-72
2023/02/11 01:07:36;;;;;;;10.05;5.10;;;;;;;;;;5131349;27;20018;-75
2023/02/11 01:10:03;;;;;;;9.70;6.07;;;;;;;;;;5140822;27;20501;-72
2023/02/11 01:12:29;;;;;;;10.15;6.32;;;;;;;;;;5137265;27;20023;-72
2023/02/11 01:14:55;;;;;;;8.13;5.18;;;;;;;;;;5132929;27;20490;-72
2023/02/11 01:17:21;;;;;;;8.48;5.40;;;;;;;;;;5134977;27;20479;-72
2023/02/11 01:19:47;;;;;;;7.93;5.88;;;;;;;;;;5134226;27;20507;-72
2023/02/11 01:22:13;;;;;;;9.63;5.70;;;;;;;;;;5137606;27;20183;-72
2023/02/11 01:24:40;;;;;;;8.98;5.55;;;;;;;;;;5139599;27;20019;-72
2023/02/11 01:27:06;;;;;;;7.78;6.28;;;;;;;;;;5134616;27;20011;-72
2023/02/11 01:29:32;;;;;;;10.95;6.60;;;;;;;;;;5134089;27;20023;-72
2023/02/11 01:31:59;;;;;;;8.13;6.20;;;;;;;;;;5128894;27;20019;-71
2023/02/11 01:34:25;;;;;;;11.32;7.10;;;;;;;;;;5132797;27;20026;-71
2023/02/11 01:36:56;;;;;;;12.23;6.70;;;;;;;;;;5128853;27;20039;-72
2023/02/11 01:39:22;;;;;;;10.90;6.97;;;;;;;;;;5134098;27;20022;-72
2023/02/11 01:41:48;;;;;;;9.52;6.10;;;;;;;;;;5137386;27;20022;-77
2023/02/11 01:44:34;;;;;;;10.10;5.93;;;;;;;;;;5131973;27;20023;-71
2023/02/11 01:47:03;;;;;;;9.75;6.40;;;;;;;;;;5134652;27;20097;-71
2023/02/11 01:49:35;;;;;;;13.85;6.93;;;;;;;;;;5128801;27;20508;-72
2023/02/11 01:52:04;;;;;;;10.23;6.50;;;;;;;;;;5133324;27;20038;-72
2023/02/11 01:57:21;;;;;;;10.98;6.07;;;;;;;;;;5132442;27;20453;-71
2023/02/11 01:59:50;;;;;;;9.50;6.22;;;;;;;;;;5136736;27;20033;-72
2023/02/11 02:02:19;;;;;;;9.40;6.30;;;;;;;;;;5134316;27;20022;-72
2023/02/11 02:04:53;;;;;;;10.18;5.93;;;;;;;;;;5134109;27;20023;-72
2023/02/11 02:07:32;;;;;;;9.15;5.95;;;;;;;;;;5130011;27;20015;-72
2023/02/11 02:10:02;;;;;;;10.05;6.13;;;;;;;;;;5134781;27;20158;-72
2023/02/11 02:12:28;;;;;;;9.95;5.88;;;;;;;;;;5115919;27;20475;-73
2023/02/11 02:15:14;;;;;;;10.30;6.28;;;;;;;;;;5113900;27;20027;-74
2023/02/11 02:17:45;;;;;;;10.98;6.40;;;;;;;;;;5132200;27;20027;-72
2023/02/11 02:20:27;;;;;;;9.15;6.43;;;;;;;;;;5123983;27;20518;-72
2023/02/11 02:23:12;;;;;;;10.50;6.15;;;;;;;;;;5127933;27;20023;-72
2023/02/11 02:25:52;;;;;;;8.32;5.20;;;;;;;;;;5135432;27;20050;-72
2023/02/11 02:28:18;;;;;;;9.68;6.00;;;;;;;;;;5131250;27;20018;-71
2023/02/11 02:30:49;;;;;;;9.38;5.97;;;;;;;;;;5116015;27;20622;-73
2023/02/11 02:33:36;;;;;;;10.95;5.68;;;;;;;;;;5132645;27;20019;-72
2023/02/11 02:36:22;;;;;;;8.80;5.97;;;;;;;;;;5129706;27;21410;-72
2023/02/11 02:38:51;;;;;;;8.32;6.45;;;;;;;;;;5136701;27;20034;-72
2023/02/11 02:41:23;;;;;;;9.88;6.03;;;;;;;;;;5127928;27;20137;-72
2023/02/11 02:43:50;;;;;;;15.43;6.57;;;;;;;;;;5131704;27;20019;-72
2023/02/11 02:46:16;;;;;;;10.48;5.95;;;;;;;;;;5135338;27;20019;-72
2023/02/11 02:48:42;;;;;;;9.95;5.38;;;;;;;;;;5130478;27;20027;-72
2023/02/11 02:51:22;;;;;;;11.07;6.00;;;;;;;;;;5134254;27;20524;-72
2023/02/11 02:53:51;;;;;;;7.65;5.60;;;;;;;;;;5118869;27;20027;-72
2023/02/11 02:56:42;;;;;;;9.13;5.82;;;;;;;;;;5132475;27;20131;-72
2023/02/11 02:59:13;;;;;;;11.38;5.85;;;;;;;;;;5111236;27;20537;-72
2023/02/11 03:01:47;;;;;;;9.40;6.05;;;;;;;;;;5137995;27;20423;-72
2023/02/11 03:04:22;;;;;;;9.57;5.88;;;;;;;;;;5127678;27;20067;-71
2023/02/11 03:07:11;;;;;;;11.40;6.07;;;;;;;;;;5136744;27;20763;-72
2023/02/11 03:09:37;;;;;;;11.23;6.68;;;;;;;;;;5105488;27;20087;-71
2023/02/11 03:12:04;;;;;;;8.05;5.95;;;;;;;;;;5133703;27;20114;-72
2023/02/11 03:14:31;;;;;;;10.65;5.85;;;;;;;;;;5118432;27;20022;-72
2023/02/11 03:16:59;;;;;;;9.52;6.32;;;;;;;;;;5133771;27;20026;-73
2023/02/11 03:19:36;;;;;;;9.60;5.47;;;;;;;;;;5131774;27;20021;-72
2023/02/11 03:22:05;;;;;;;9.25;6.10;;;;;;;;;;5112060;27;20536;-72
2023/02/11 03:24:33;;;;;;;12.13;5.97;;;;;;;;;;5133145;27;20386;-72
2023/02/11 03:27:21;;;;;;;9.02;6.13;;;;;;;;;;5131804;27;20029;-72
2023/02/11 03:29:59;;;;;;;6.72;5.00;;;;;;;;;;5137731;27;20019;-71
2023/02/11 03:32:35;;;;;;;8.57;5.88;;;;;;;;;;5118103;27;20030;-72
2023/02/11 03:35:10;;;;;;;12.18;6.15;;;;;;;;;;5133811;27;20015;-72
2023/02/11 03:37:39;;;;;;;7.53;5.75;;;;;;;;;;5134865;27;20091;-72
2023/02/11 03:40:05;;;;;;;8.52;5.45;;;;;;;;;;5128442;27;20028;-72
2023/02/11 03:42:35;;;;;;;10.07;6.10;;;;;;;;;;5132713;27;20031;-72
2023/02/11 03:45:07;;;;;;;8.57;5.70;;;;;;;;;;5109701;27;20033;-72
2023/02/11 03:47:35;;;;;;;12.10;5.57;;;;;;;;;;5129580;27;20041;-71
2023/02/11 03:50:03;;;;;;;11.93;5.82;;;;;;;;;;5135302;27;20046;-72
2023/02/11 03:52:29;;;;;;;13.60;5.40;;;;;;;;;;5129012;27;20023;-71
2023/02/11 03:54:56;;;;;;;9.52;5.25;;;;;;;;;;5117685;27;20478;-72
2023/02/11 03:57:23;;;;;;;10.38;6.40;;;;;;;;;;5132545;27;20035;-71
2023/02/11 03:59:54;;;;;;;8.40;5.10;;;;;;;;;;5133459;27;20402;-75
2023/02/11 04:02:21;;;;;;;7.10;5.53;;;;;;;;;;5133146;27;20023;-71
2023/02/11 04:04:47;;;;;;;9.63;5.68;;;;;;;;;;5133343;27;20019;-72
2023/02/11 04:07:13;;;;;;;10.18;6.70;;;;;;;;;;5127025;27;20031;-71
2023/02/11 04:09:39;;;;;;;9.88;5.63;;;;;;;;;;5130382;27;20041;-71
2023/02/11 04:12:06;;;;;;;8.52;6.30;;;;;;;;;;5133420;27;20029;-71
2023/02/11 04:14:32;;;;;;;7.57;5.10;;;;;;;;;;5134608;27;20027;-76
2023/02/11 04:16:58;;;;;;;8.38;5.53;;;;;;;;;;5136487;27;20509;-72
2023/02/11 04:19:24;;;;;;;8.27;5.82;;;;;;;;;;5127037;27;20033;-72
2023/02/11 04:21:50;;;;;;;11.43;5.00;;;;;;;;;;5135183;27;20037;-71
2023/02/11 04:24:16;;;;;;;7.75;5.75;;;;;;;;;;5111168;27;20031;-72
2023/02/11 04:26:43;;;;;;;9.93;5.30;;;;;;;;;;5131861;27;20019;-71
2023/02/11 04:29:09;;;;;;;8.68;5.88;;;;;;;;;;5136265;27;20110;-72
2023/02/11 04:31:35;;;;;;;10.82;5.82;;;;;;;;;;5134591;27;20027;-72
2023/02/11 04:34:01;;;;;;;9.32;5.63;;;;;;;;;;5138305;27;20030;-73
2023/02/11 04:36:27;;;;;;;8.88;5.80;;;;;;;;;;5131762;27;20019;-71
2023/02/11 04:38:53;;;;;;;8.45;5.22;;;;;;;;;;5128791;27;20030;-72
2023/02/11 04:41:19;;;;;;;9.50;5.30;;;;;;;;;;5131899;27;20022;-72
2023/02/11 04:43:46;;;;;;;8.27;5.93;;;;;;;;;;5133603;27;20650;-72
2023/02/11 04:46:12;;;;;;;8.68;5.78;;;;;;;;;;5113727;27;20417;-71
2023/02/11 04:48:38;;;;;;;11.20;5.53;;;;;;;;;;5119262;27;20475;-71
2023/02/11 04:51:04;;;;;;;9.50;6.22;;;;;;;;;;5115590;27;20038;-72
2023/02/11 04:53:30;;;;;;;9.70;6.45;;;;;;;;;;5135028;27;20023;-73
2023/02/11 04:55:56;;;;;;;8.32;5.95;;;;;;;;;;5130320;27;20023;-72
2023/02/11 04:58:23;;;;;;;17.70;6.63;;;;;;;;;;5132046;27;20027;-72
2023/02/11 05:00:49;;;;;;;9.32;5.75;;;;;;;;;;5132993;27;20423;-72
2023/02/11 05:03:16;;;;;;;10.25;6.07;;;;;;;;;;5131447;27;20030;-73
2023/02/11 05:05:42;;;;;;;11.82;6.07;;;;;;;;;;5137953;27;20523;-72
2023/02/11 05:08:11;;;;;;;11.95;5.47;;;;;;;;;;5129136;27;20102;-72
2023/02/11 05:10:38;;;;;;;7.47;5.70;;;;;;;;;;5130240;27;20015;-72
2023/02/11 05:13:04;;;;;;;9.95;5.57;;;;;;;;;;5129336;27;20066;-72
2023/02/11 05:15:30;;;;;;;8.48;5.57;;;;;;;;;;5136239;27;20027;-74
2023/02/11 05:17:56;;;;;;;9.43;5.82;;;;;;;;;;5134979;27;20469;-74
2023/02/11 05:20:23;;;;;;;11.10;5.47;;;;;;;;;;5130888;27;20210;-71
2023/02/11 05:22:49;;;;;;;8.35;5.70;;;;;;;;;;5131593;27;20030;-71
2023/02/11 05:25:15;;;;;;;10.32;5.72;;;;;;;;;;5130699;27;20507;-72
2023/02/11 05:27:41;;;;;;;9.10;5.57;;;;;;;;;;5131262;27;20161;-71
2023/02/11 05:30:07;;;;;;;11.85;6.05;;;;;;;;;;5128794;27;20019;-72
2023/02/11 05:32:34;;;;;;;10.32;6.43;;;;;;;;;;5134439;27;20018;-72
2023/02/11 05:35:00;;;;;;;11.35;6.60;;;;;;;;;;5133520;27;20051;-73
2023/02/11 05:37:26;;;;;;;8.90;5.55;;;;;;;;;;5134459;27;20042;-72
2023/02/11 05:39:52;;;;;;;11.50;5.78;;;;;;;;;;5128674;27;20019;-72
2023/02/11 05:42:18;;;;;;;11.52;5.82;;;;;;;;;;5115689;27;20054;-72
2023/02/11 05:44:44;;;;;;;9.73;5.65;;;;;;;;;;5126410;27;20012;-72
2023/02/11 05:47:10;;;;;;;8.90;5.78;;;;;;;;;;5130356;27;20019;-72
2023/02/11 05:49:37;;;;;;;13.18;6.50;;;;;;;;;;5134866;27;20043;-72
2023/02/11 05:52:03;;;;;;;10.50;6.35;;;;;;;;;;5129484;27;20071;-77
2023/02/11 05:54:29;;;;;;;10.93;5.40;;;;;;;;;;5137772;27;20118;-76
2023/02/11 05:56:55;;;;;;;6.63;5.28;;;;;;;;;;5127127;27;20070;-72
2023/02/11 05:59:21;;;;;;;10.23;6.13;;;;;;;;;;5133794;27;20601;-74
2023/02/11 06:01:47;;;;;;;12.10;6.25;;;;;;;;;;5127765;27;20057;-72
2023/02/11 06:04:14;;;;;;;11.18;5.72;;;;;;;;;;5137004;27;20023;-72
2023/02/11 06:06:40;;;;;;;9.00;5.35;;;;;;;;;;5133551;27;20021;-72
2023/02/11 06:09:06;;;;;;;7.10;5.70;;;;;;;;;;5129982;27;20050;-72
2023/02/11 06:11:32;;;;;;;13.65;5.63;;;;;;;;;;5134378;27;21158;-72
2023/02/11 06:13:58;;;;;;;9.27;5.25;;;;;;;;;;5127770;27;20033;-72
2023/02/11 06:16:24;;;;;;;10.48;5.82;;;;;;;;;;5136643;27;20030;-73
2023/02/11 06:18:51;;;;;;;9.55;5.70;;;;;;;;;;5127902;27;20026;-71
2023/02/11 06:21:17;;;;;;;9.90;6.32;;;;;;;;;;5129180;27;20059;-72
2023/02/11 06:23:43;;;;;;;10.25;6.65;;;;;;;;;;5127370;27;20019;-71
2023/02/11 06:26:15;;;;;;;11.52;6.20;;;;;;;;;;5129979;27;20019;-75
2023/02/11 06:28:41;;;;;;;7.90;5.50;;;;;;;;;;5133961;27;20067;-72
2023/02/11 06:31:08;;;;;;;8.98;5.63;;;;;;;;;;5134759;27;20034;-72
2023/02/11 06:33:35;;;;;;;9.02;6.30;;;;;;;;;;5127236;27;20072;-71
2023/02/11 06:36:01;;;;;;;9.27;6.10;;;;;;;;;;5130383;27;20030;-71
2023/02/11 06:38:27;;;;;;;9.73;5.68;;;;;;;;;;5128451;27;20056;-71
2023/02/11 06:40:53;;;;;;;9.70;5.80;;;;;;;;;;5132937;27;20033;-72
2023/02/11 06:43:19;;;;;;;10.73;6.32;;;;;;;;;;5138261;27;20038;-71
2023/02/11 06:45:51;;;;;;;10.35;6.68;;;;;;;;;;5129920;27;20476;-71
2023/02/11 06:48:17;;;;;;;9.90;7.03;;;;;;;;;;5126912;27;20467;-72
2023/02/11 06:50:43;;;;;;;8.43;6.43;;;;;;;;;;5127689;27;20027;-71
2023/02/11 06:53:10;;;;;;;10.43;6.78;;;;;;;;;;5135699;27;20040;-74
2023/02/11 06:55:36;;;;;;;11.73;7.07;;;;;;;;;;5132081;27;20027;-72
2023/02/11 06:58:02;;;;;;;10.18;6.20;;;;;;;;;;5132636;27;20038;-72
2023/02/11 07:00:28;;;;;;;10.98;7.07;;;;;;;;;;5127511;27;20019;-71
2023/02/11 07:02:54;;;;;;;9.82;6.13;;;;;;;;;;5117085;27;20215;-74
2023/02/11 07:05:21;;;;;;;13.18;7.97;;;;;;;;;;5109690;27;20015;-71
2023/02/11 07:07:47;;;;;;;13.30;7.38;;;;;;;;;;5137817;27;20024;-70
2023/02/11 07:10:13;;;;;;;17.25;6.88;;;;;;;;;;5130753;27;20087;-72
2023/02/11 07:12:40;;;;;;;10.77;7.38;;;;;;;;;;5120382;27;20504;-71
2023/02/11 07:15:06;;;;;;;11.48;7.03;;;;;;;;;;5131826;27;20090;-71
2023/02/11 07:17:34;;;;;;;10.68;6.28;;;;;;;;;;5126894;27;20035;-71
2023/02/11 07:20:00;;;;;;;11.13;7.00;;;;;;;;;;5129481;27;20538;-72
2023/02/11 07:22:26;;;;;;;11.80;7.70;;;;;;;;;;5126459;27;20100;-71
2023/02/11 07:24:53;;;;;;;11.82;6.97;;;;;;;;;;5130932;27;20102;-71
2023/02/11 07:27:19;;;;;;;8.00;5.90;;;;;;;;;;5132969;27;20017;-71
2023/02/11 07:29:45;;;;;;;8.25;5.85;;;;;;;;;;5128633;27;20023;-70
2023/02/11 07:32:12;;;;;;;8.60;6.72;;;;;;;;;;5134443;27;20022;-74
2023/02/11 07:34:38;;;;;;;7.90;6.43;;;;;;;;;;5126874;27;20417;-71
2023/02/11 07:37:04;;;;;;;10.70;7.10;;;;;;;;;;5125828;27;20035;-75
2023/02/11 07:39:31;;;;;;;11.75;7.80;;;;;;;;;;5141693;27;20064;-72
2023/02/11 07:41:57;;;;;;;12.90;7.32;;;;;;;;;;5125838;27;20030;-71
2023/02/11 07:44:23;;;;;;;11.82;7.43;;;;;;;;;;5130892;27;20069;-73
2023/02/11 07:46:49;;;;;;;12.95;8.40;;;;;;;;;;5133133;27;20019;-71
2023/02/11 07:49:16;;;;;;;15.95;10.23;;;;;;;;;;5131950;27;20019;-72
2023/02/11 07:51:42;;;;;;;17.77;10.45;;;;;;;;;;5130845;27;20031;-72
2023/02/11 07:54:09;;;;;;;11.00;8.60;;;;;;;;;;5131451;27;20890;-71
2023/02/11 07:56:35;;;;;;;13.15;9.30;;;;;;;;;;5137036;27;20015;-71
2023/02/11 07:59:02;;;;;;;11.55;7.32;;;;;;;;;;5129628;27;20033;-72
2023/02/11 08:01:29;;;;;;;12.90;8.63;;;;;;;;;;5136737;27;20037;-71
2023/02/11 08:03:56;;;;;;;14.60;7.47;;;;;;;;;;5133843;27;20027;-71
2023/02/11 08:06:23;;;;;;;9.20;6.07;;;;;;;;;;5133517;27;20018;-71
2023/02/11 08:08:49;;;;;;;10.25;5.75;;;;;;;;;;5130262;27;20030;-71
2023/02/11 08:11:17;;;;;;;9.60;5.63;;;;;;;;;;5132008;27;20054;-71
2023/02/11 08:13:43;;;;;;;10.05;6.18;;;;;;;;;;5136679;27;20006;-71
2023/02/11 08:16:16;;;;;;;8.60;5.95;;;;;;;;;;5135107;27;20118;-72
2023/02/11 08:18:42;;;;;;;8.93;6.70;;;;;;;;;;5137190;27;20075;-71
2023/02/11 08:21:09;;;;;;;9.98;7.10;;;;;;;;;;5134580;27;20094;-70
2023/02/11 08:23:36;;;;;;;8.82;6.22;;;;;;;;;;5142412;27;20415;-71
2023/02/11 08:26:07;;;;;;;9.48;5.97;;;;;;;;;;5128570;27;20249;-75
2023/02/11 08:28:37;;;;;;;9.30;5.63;;;;;;;;;;5134667;27;20015;-74
2023/02/11 08:31:08;;;;;;;9.65;5.63;;;;;;;;;;5131572;27;20022;-72
2023/02/11 08:33:34;;;;;;;7.45;5.43;;;;;;;;;;5133549;27;20031;-74
2023/02/11 08:36:01;;;;;;;9.40;5.63;;;;;;;;;;5131375;27;20019;-74
2023/02/11 08:38:27;;;;;;;8.65;5.93;;;;;;;;;;5131073;27;20023;-72
2023/02/11 08:40:53;;;;;;;10.68;5.68;;;;;;;;;;5119322;27;20022;-71
2023/02/11 08:43:19;;;;;;;10.05;6.55;;;;;;;;;;5120358;27;20360;-75
2023/02/11 08:45:45;;;;;;;7.50;5.72;;;;;;;;;;5136083;27;20043;-71
2023/02/11 08:48:12;;;;;;;9.45;5.78;;;;;;;;;;5131048;27;20391;-72
2023/02/11 08:50:38;;;;;;;9.18;5.78;;;;;;;;;;5131601;27;20523;-75
2023/02/11 08:53:05;;;;;;;9.93;6.32;;;;;;;;;;5112546;27;20027;-75
2023/02/11 08:55:31;;;;;;;7.95;6.00;;;;;;;;;;5133312;27;20049;-75
2023/02/11 08:57:57;;;;;;;10.23;5.45;;;;;;;;;;5129517;27;20027;-75
2023/02/11 09:00:23;;;;;;;8.25;5.60;;;;;;;;;;5131672;27;20035;-74
2023/02/11 09:02:49;;;;;;;8.00;5.28;;;;;;;;;;5134613;27;20038;-75
2023/02/11 09:05:15;;;;;;;10.50;5.75;;;;;;;;;;5130858;27;20079;-71
2023/02/11 09:07:41;;;;;;;11.85;6.03;;;;;;;;;;5119388;27;20026;-75
2023/02/11 09:10:08;;;;;;;8.45;5.30;;;;;;;;;;5133546;27;20034;-75
2023/02/11 09:12:34;;;;;;;7.55;5.13;;;;;;;;;;5123556;27;20050;-75
2023/02/11 09:15:00;;;;;;;9.05;5.80;;;;;;;;;;5131232;27;20061;-75
2023/02/11 09:17:26;;;;;;;8.30;5.85;;;;;;;;;;5133800;27;20059;-73
2023/02/11 09:19:52;;;;;;;11.48;6.85;;;;;;;;;;5127725;27;20027;-74
2023/02/11 09:22:19;;;;;;;8.35;5.93;;;;;;;;;;5129230;27;20495;-74
2023/02/11 09:24:45;;;;;;;10.65;6.22;;;;;;;;;;5134658;27;20438;-75
2023/02/11 09:27:11;;;;;;;8.57;5.63;;;;;;;;;;5130408;27;20027;-71
2023/02/11 09:29:37;;;;;;;9.18;6.20;;;;;;;;;;5132107;27;20100;-71
2023/02/11 09:32:03;;;;;;;9.98;6.00;;;;;;;;;;5132916;27;20027;-71
2023/02/11 09:34:29;;;;;;;10.15;5.85;;;;;;;;;;5135346;27;20020;-71
2023/02/11 09:36:56;;;;;;;9.25;6.03;;;;;;;;;;5131961;27;20499;-72
2023/02/11 09:39:22;;;;;;;10.18;6.25;;;;;;;;;;5133749;27;20690;-70
2023/02/11 09:42:03;;;;;;;8.52;5.95;;;;;;;;;;5129185;27;20308;-71
2023/02/11 09:44:31;;;;;;;7.85;5.35;;;;;;;;;;5132310;27;20482;-72
2023/02/11 09:46:59;;;;;;;8.95;6.35;;;;;;;;;;5128542;27;20020;-71
2023/02/11 09:49:33;;;;;;;9.50;6.10;;;;;;;;;;5136505;27;20651;-70
2023/02/11 09:52:04;;;;;;;7.63;6.10;;;;;;;;;;5130794;27;20487;-70
2023/02/11 09:54:34;;;;;;;8.68;6.03;;;;;;;;;;5133877;27;20211;-73
2023/02/11 09:57:00;;;;;;;9.52;6.25;;;;;;;;;;5129568;27;20030;-71
2023/02/11 09:59:27;;;;;;;18.80;6.70;;;;;;;;;;5132447;27;20039;-73
2023/02/11 10:01:57;;;;;;;11.82;6.57;;;;;;;;;;5128331;27;20019;-72
2023/02/11 10:04:23;;;;;;;24.63;8.32;;;;;;;;;;5133916;27;20080;-73
2023/02/11 10:06:57;;;;;;;27.20;8.02;;;;;;;;;;5136014;27;20023;-70
2023/02/11 10:09:41;;;;;;;9.57;6.90;;;;;;;;;;5127636;27;20480;-70
2023/02/11 10:12:08;;;;;;;10.48;7.30;;;;;;;;;;5134928;27;20922;-72
2023/02/11 10:14:52;;;;;;;9.00;6.15;;;;;;;;;;5126436;27;20015;-73
2023/02/11 10:17:18;;;;;;;17.30;7.30;;;;;;;;;;5132280;27;20049;-76
2023/02/11 10:19:45;;;;;;;11.50;5.88;;;;;;;;;;5127517;27;20084;-75
2023/02/11 10:22:17;;;;;;;8.80;6.38;;;;;;;;;;5132992;27;20030;-70
2023/02/11 10:24:48;;;;;;;9.63;6.30;;;;;;;;;;5112202;27;20019;-72
2023/02/11 10:27:20;;;;;;;7.97;6.28;;;;;;;;;;5130482;27;20036;-70
2023/02/11 10:29:56;;;;;;;8.43;6.10;;;;;;;;;;5136855;27;20134;-73
2023/02/11 10:32:25;;;;;;;9.02;6.10;;;;;;;;;;5132549;27;20022;-71
2023/02/11 10:34:52;;;;;;;9.40;6.10;;;;;;;;;;5127748;27;20034;-70
2023/02/11 10:37:19;;;;;;;8.23;6.07;;;;;;;;;;5130354;27;20039;-72
2023/02/11 10:39:45;;;;;;;8.00;5.72;;;;;;;;;;5128513;27;20023;-69
2023/02/11 10:42:12;;;;;;;7.63;6.38;;;;;;;;;;5131350;27;20023;-71
2023/02/11 10:44:40;;;;;;;13.02;7.70;;;;;;;;;;5114732;27;20046;-70
2023/02/11 10:47:12;;;;;;;13.07;6.75;;;;;;;;;;5110268;27;20027;-70
2023/02/11 10:49:38;;;;;;;9.65;6.57;;;;;;;;;;5125231;27;20090;-70
2023/02/11 10:52:29;;;;;;;8.70;6.30;;;;;;;;;;5127181;27;20027;-69
2023/02/11 10:55:14;;;;;;;8.02;5.97;;;;;;;;;;5116958;27;20042;-70
2023/02/11 10:57:53;;;;;;;9.32;6.80;;;;;;;;;;5128737;27;20042;-69
2023/02/11 11:00:43;;;;;;;8.98;6.63;;;;;;;;;;5133049;27;20609;-69
2023/02/11 11:03:18;;;;;;;8.70;5.93;;;;;;;;;;5120699;27;20046;-70
2023/02/11 11:06:05;;;;;;;11.43;6.60;;;;;;;;;;5136313;27;20015;-69
2023/02/11 11:08:37;;;;;;;11.52;6.85;;;;;;;;;;5136572;27;20030;-70
2023/02/11 11:11:05;;;;;;;11.50;7.18;;;;;;;;;;5137105;27;20102;-69
2023/02/11 11:13:38;;;;;;;10.30;6.40;;;;;;;;;;5138379;27;20034;-69
2023/02/11 11:16:13;;;;;;;13.90;7.70;;;;;;;;;;5132658;27;20019;-69
2023/02/11 11:18:42;;;;;;;10.77;7.10;;;;;;;;;;5129692;27;20115;-69
2023/02/11 11:21:14;;;;;;;14.23;7.80;;;;;;;;;;5131686;27;20503;-69
2023/02/11 11:23:46;;;;;;;8.68;6.68;;;;;;;;;;5128462;27;20039;-69
2023/02/11 11:26:14;;;;;;;11.50;6.55;;;;;;;;;;5138610;27;20027;-78
2023/02/11 11:28:43;;;;;;;9.75;6.65;;;;;;;;;;5130982;27;20083;-69
2023/02/11 11:31:18;;;;;;;9.05;6.50;;;;;;;;;;5145686;27;20030;-69
2023/02/11 11:33:45;;;;;;;8.23;5.82;;;;;;;;;;5131315;27;20111;-69
2023/02/11 11:36:13;;;;;;;8.93;5.97;;;;;;;;;;5115267;27;20034;-69
2023/02/11 11:38:49;;;;;;;7.95;6.10;;;;;;;;;;5134358;27;20023;-69
2023/02/11 11:41:16;;;;;;;9.18;6.90;;;;;;;;;;5128836;27;20023;-69
2023/02/11 11:44:06;;;;;;;8.45;5.85;;;;;;;;;;5122746;27;20098;-69
2023/02/11 11:46:34;;;;;;;8.68;6.22;;;;;;;;;;5132135;27;20042;-69
2023/02/11 11:49:05;;;;;;;11.02;7.00;;;;;;;;;;5134124;27;20057;-69
2023/02/11 11:51:32;;;;;;;8.27;6.53;;;;;;;;;;5128025;27;20601;-69
2023/02/11 11:54:03;;;;;;;10.50;6.80;;;;;;;;;;5128496;27;20027;-69
2023/02/11 11:56:32;;;;;;;8.45;6.50;;;;;;;;;;5108264;27;20038;-69
2023/02/11 11:59:00;;;;;;;10.15;7.57;;;;;;;;;;5128897;27;20425;-69
2023/02/11 12:01:26;;;;;;;10.43;8.13;;;;;;;;;;5126526;27;20079;-69
2023/02/11 12:04:04;;;;;;;11.18;7.82;;;;;;;;;;5132015;27;20019;-68
2023/02/11 12:06:31;;;;;;;9.85;7.15;;;;;;;;;;5127712;27;20454;-69
2023/02/11 12:09:03;;;;;;;11.50;7.47;;;;;;;;;;5128110;27;20034;-68
2023/02/11 12:11:32;;;;;;;10.48;7.03;;;;;;;;;;5130128;27;20072;-69
2023/02/11 12:14:01;;;;;;;11.60;7.50;;;;;;;;;;5126763;27;20114;-68
2023/02/11 12:16:28;;;;;;;9.18;6.72;;;;;;;;;;5131128;27;20602;-69
2023/02/11 12:18:54;;;;;;;9.65;6.80;;;;;;;;;;5130179;27;20052;-69
2023/02/11 12:21:23;;;;;;;11.88;7.80;;;;;;;;;;5129630;27;20074;-69
2023/02/11 12:24:08;;;;;;;8.73;6.60;;;;;;;;;;5126676;27;20084;-69
2023/02/11 12:26:40;;;;;;;15.60;10.55;;;;;;;;;;5129854;27;20038;-68
2023/02/11 12:29:24;;;;;;;9.73;7.18;;;;;;;;;;5128886;27;20024;-69
2023/02/11 12:31:53;;;;;;;13.13;7.32;;;;;;;;;;5128511;27;20023;-69
2023/02/11 12:34:26;;;;;;;11.07;7.22;;;;;;;;;;5128256;27;20470;-69
2023/02/11 12:37:06;;;;;;;12.80;7.95;;;;;;;;;;5141005;27;20031;-80
2023/02/11 12:39:33;;;;;;;11.38;7.75;;;;;;;;;;5134659;27;20022;-69
2023/02/11 12:44:58;;;;;;;10.77;7.07;;;;;;;;;;5132405;27;20576;-72
2023/02/11 12:47:43;;;;;;;8.20;6.40;;;;;;;;;;5135656;27;20087;-69
2023/02/11 12:50:12;;;;;;;12.93;8.85;;;;;;;;;;5128843;27;20499;-69
2023/02/11 12:52:38;;;;;;;10.75;8.40;;;;;;;;;;5131879;27;20027;-69
2023/02/11 12:55:10;;;;;;;7.68;6.53;;;;;;;;;;5126934;27;20037;-69
2023/02/11 12:57:37;;;;;;;12.68;7.03;;;;;;;;;;5132554;27;20070;-70
2023/02/11 13:00:13;;;;;;;10.05;7.07;;;;;;;;;;5134562;27;20027;-69
2023/02/11 13:02:50;;;;;;;10.40;6.50;;;;;;;;;;5132163;27;20110;-69
2023/02/11 13:05:25;;;;;;;8.60;6.00;;;;;;;;;;5131088;27;20102;-69
2023/02/11 13:07:52;;;;;;;8.45;6.20;;;;;;;;;;5129063;27;20023;-69
2023/02/11 13:10:18;;;;;;;10.25;6.60;;;;;;;;;;5133481;27;20519;-69
2023/02/11 13:15:32;;;;;;;9.27;7.80;;;;;;;;;;5140774;27;20380;-69
2023/02/11 13:17:59;;;;;;;12.73;7.85;;;;;;;;;;5126471;27;20031;-69
2023/02/11 13:20:32;;;;;;;8.27;6.38;;;;;;;;;;5135604;27;20082;-69
2023/02/11 13:23:07;;;;;;;11.02;8.52;;;;;;;;;;5132113;27;20441;-72
2023/02/11 13:25:47;;;;;;;11.38;7.45;;;;;;;;;;5129648;27;20023;-69
2023/02/11 13:28:22;;;;;;;13.13;8.07;;;;;;;;;;5130162;27;20027;-69
2023/02/11 13:30:56;;;;;;;10.85;8.10;;;;;;;;;;5128811;27;20015;-69
2023/02/11 13:33:44;;;;;;;12.73;8.63;;;;;;;;;;5128994;27;20019;-69
2023/02/11 13:36:15;;;;;;;10.98;8.07;;;;;;;;;;5125791;27;20415;-69
2023/02/11 13:38:51;;;;;;;10.55;7.50;;;;;;;;;;5129562;27;20039;-69
2023/02/11 13:41:26;;;;;;;11.55;6.93;;;;;;;;;;5123934;27;20019;-69
2023/02/11 13:44:03;;;;;;;10.63;6.95;;;;;;;;;;5130995;27;20033;-69
2023/02/11 13:46:52;;;;;;;9.77;6.90;;;;;;;;;;5135541;27;20025;-69
2023/02/11 13:49:21;;;;;;;8.32;6.65;;;;;;;;;;5129931;27;20030;-69
2023/02/11 13:51:47;;;;;;;10.93;7.35;;;;;;;;;;5134265;27;20026;-69
2023/02/11 13:54:32;;;;;;;10.60;6.68;;;;;;;;;;5130790;27;20398;-69
2023/02/11 13:57:17;;;;;;;9.90;7.28;;;;;;;;;;5139002;27;20031;-69
2023/02/11 13:59:44;;;;;;;9.40;7.38;;;;;;;;;;5118118;27;20027;-69
2023/02/11 14:10:53;;;;;;;10.65;7.35;;;;;;;;;;5133898;27;20111;-69
2023/02/11 14:13:19;;;;;;;10.45;7.40;;;;;;;;;;5134252;27;20021;-69
2023/02/11 14:15:45;;;;;;;10.10;7.22;;;;;;;;;;5126879;27;20030;-69
2023/02/11 14:18:30;;;;;;;11.88;8.30;;;;;;;;;;5130626;27;20034;-70
2023/02/11 14:21:11;;;;;;;11.20;7.65;;;;;;;;;;5122891;27;20126;-69
2023/02/11 14:23:38;;;;;;;13.23;7.97;;;;;;;;;;5132274;27;20023;-71
2023/02/11 14:26:11;;;;;;;14.35;8.10;;;;;;;;;;5131301;27;20387;-73
2023/02/11 14:28:38;;;;;;;14.05;10.00;;;;;;;;;;5130063;27;20022;-70
2023/02/11 14:31:08;;;;;;;20.15;14.48;;;;;;;;;;5130414;27;20098;-74
2023/02/11 14:33:38;;;;;;;23.10;15.93;;;;;;;;;;5133931;27;20072;-70
2023/02/11 14:36:13;;;;;;;17.30;13.18;;;;;;;;;;5128548;27;20030;-69
2023/02/11 14:38:43;;;;;;;13.23;10.40;;;;;;;;;;5128189;27;20027;-70
2023/02/11 14:41:19;;;;;;;11.80;8.95;;;;;;;;;;5128620;27;20453;-70
2023/02/11 14:43:48;;;;;;;13.48;9.35;;;;;;;;;;5128103;27;20407;-70
2023/02/11 14:46:17;;;;;;;12.02;8.73;;;;;;;;;;5127804;27;20030;-72
2023/02/11 14:48:48;;;;;;;31.00;11.32;;;;;;;;;;5135009;27;20026;-69
2023/02/11 14:51:14;;;;;;;13.45;9.05;;;;;;;;;;5132682;27;20026;-70
2023/02/11 14:53:43;;;;;;;20.83;8.07;;;;;;;;;;5132240;27;20051;-68
2023/02/11 14:56:17;;;;;;;13.85;8.82;;;;;;;;;;5139136;27;20544;-69
2023/02/11 14:58:47;;;;;;;11.43;8.32;;;;;;;;;;5115339;27;20126;-69
2023/02/11 15:01:34;;;;;;;11.55;7.95;;;;;;;;;;5131241;27;20018;-69
2023/02/11 15:04:04;;;;;;;9.30;7.85;;;;;;;;;;5125699;27;20037;-69
2023/02/11 15:06:33;;;;;;;11.02;7.53;;;;;;;;;;5132034;27;20022;-69